createdAt,value
2022-11-22T00:02:02.026Z,5.93
2022-11-22T00:04:40.429Z,6.10
2022-11-22T00:07:23.159Z,5.60
2022-11-22T00:09:59.988Z,5.70
2022-11-22T00:12:33.293Z,5.50
2022-11-22T00:15:11.299Z,5.90
2022-11-22T00:17:44.815Z,5.60
2022-11-22T00:20:23.541Z,5.23
2022-11-22T00:23:06.870Z,5.50
2022-11-22T00:25:45.366Z,5.30
2022-11-22T00:28:26.952Z,5.37
2022-11-22T00:31:02.022Z,5.60
2022-11-22T00:33:38.298Z,5.40
2022-11-22T00:36:16.670Z,5.40
2022-11-22T00:38:55.373Z,5.20
2022-11-22T00:41:28.662Z,5.50
2022-11-22T00:44:01.864Z,5.30
2022-11-22T00:46:34.841Z,5.43
2022-11-22T00:49:07.698Z,5.90
2022-11-22T00:51:41.074Z,6.00
2022-11-22T00:54:13.841Z,5.90
2022-11-22T00:56:46.747Z,5.90
2022-11-22T00:59:19.806Z,6.50
2022-11-22T01:01:52.734Z,5.80
2022-11-22T01:04:25.750Z,5.70
2022-11-22T01:06:58.730Z,6.00
2022-11-22T01:09:31.822Z,6.37
2022-11-22T01:12:05.125Z,6.40
2022-11-22T01:14:41.962Z,6.87
2022-11-22T01:17:15.461Z,6.77
2022-11-22T01:19:49.021Z,7.63
2022-11-22T01:22:21.857Z,6.37
2022-11-22T01:24:54.821Z,6.20
2022-11-22T01:27:27.604Z,6.00
2022-11-22T01:30:00.576Z,6.03
2022-11-22T01:32:33.371Z,5.60
2022-11-22T01:35:06.262Z,5.60
2022-11-22T01:37:39.320Z,5.67
2022-11-22T01:40:13.592Z,5.57
2022-11-22T01:42:51.696Z,6.00
2022-11-22T01:45:41.334Z,6.10
2022-11-22T01:48:28.367Z,6.10
2022-11-22T01:51:12.383Z,6.30
2022-11-22T01:53:45.611Z,6.37
2022-11-22T01:56:20.284Z,6.30
2022-11-22T01:58:55.685Z,5.80
2022-11-22T02:01:28.773Z,5.70
2022-11-22T02:04:03.332Z,5.60
2022-11-22T02:06:38.328Z,5.60
2022-11-22T02:09:18.103Z,5.70
2022-11-22T02:11:55.970Z,5.90
2022-11-22T02:14:30.266Z,6.20
2022-11-22T02:17:06.277Z,6.23
2022-11-22T02:19:47.212Z,5.60
2022-11-22T02:22:50.445Z,6.00
2022-11-22T02:25:42.123Z,6.30
2022-11-22T02:28:16.140Z,6.00
2022-11-22T02:30:49.000Z,6.20
2022-11-22T02:33:21.808Z,6.40
2022-11-22T02:35:55.084Z,6.30
2022-11-22T02:38:29.920Z,5.67
2022-11-22T02:41:07.953Z,5.70
2022-11-22T02:43:43.089Z,5.40
2022-11-22T02:46:25.049Z,5.20
2022-11-22T02:48:58.023Z,5.27
2022-11-22T02:51:31.076Z,5.87
2022-11-22T02:54:04.022Z,5.53
2022-11-22T02:56:36.864Z,5.77
2022-11-22T02:59:09.737Z,5.20
2022-11-22T03:01:42.628Z,5.30
2022-11-22T03:04:17.019Z,5.20
2022-11-22T03:06:49.928Z,5.20
2022-11-22T03:09:22.853Z,5.13
2022-11-22T03:11:55.720Z,5.30
2022-11-22T03:14:28.620Z,5.20
2022-11-22T03:17:01.937Z,4.80
2022-11-22T03:19:35.595Z,4.30
2022-11-22T03:22:08.833Z,4.50
2022-11-22T03:24:42.677Z,4.50
2022-11-22T03:27:15.573Z,4.30
2022-11-22T03:29:48.326Z,4.10
2022-11-22T03:32:21.225Z,3.90
2022-11-22T03:34:54.212Z,2.10
2022-11-22T03:37:27.212Z,1.80
2022-11-22T03:40:00.332Z,1.90
2022-11-22T03:42:33.231Z,2.10
2022-11-22T03:45:10.328Z,2.00
2022-11-22T03:47:43.165Z,2.00
2022-11-22T03:50:16.624Z,2.00
2022-11-22T03:52:49.636Z,2.00
2022-11-22T03:55:22.689Z,2.30
2022-11-22T03:57:55.852Z,2.30
2022-11-22T04:00:28.799Z,2.13
2022-11-22T04:03:01.894Z,2.20
2022-11-22T04:05:34.771Z,2.30
2022-11-22T04:08:07.867Z,2.40
2022-11-22T04:10:40.851Z,2.67
2022-11-22T04:13:14.194Z,2.70
2022-11-22T04:15:47.311Z,2.70
2022-11-22T04:18:23.450Z,2.90
2022-11-22T04:21:14.299Z,3.00
2022-11-22T04:23:48.286Z,3.03
2022-11-22T04:26:21.400Z,3.30
2022-11-22T04:29:09.202Z,3.30
2022-11-22T04:31:46.003Z,3.40
2022-11-22T04:34:19.066Z,3.30
2022-11-22T04:36:52.149Z,3.27
2022-11-22T04:39:25.119Z,3.30
2022-11-22T04:42:18.531Z,3.10
2022-11-22T04:44:51.532Z,2.90
2022-11-22T04:47:45.043Z,3.30
2022-11-22T04:50:33.925Z,3.00
2022-11-22T04:53:07.061Z,3.10
2022-11-22T04:55:39.976Z,3.00
2022-11-22T04:58:12.964Z,3.00
2022-11-22T05:00:46.149Z,2.73
2022-11-22T05:03:19.308Z,3.20
2022-11-22T05:05:52.592Z,3.00
2022-11-22T05:08:25.194Z,2.70
2022-11-22T05:11:01.540Z,2.70
2022-11-22T05:13:36.409Z,2.80
2022-11-22T05:16:11.209Z,2.83
2022-11-22T05:18:44.122Z,2.70
2022-11-22T05:21:21.456Z,2.80
2022-11-22T05:23:57.406Z,3.00
2022-11-22T05:26:32.645Z,2.80
2022-11-22T05:29:10.077Z,2.90
2022-11-22T05:31:48.328Z,3.00
2022-11-22T05:34:18.881Z,3.10
2022-11-22T05:36:51.925Z,3.00
2022-11-22T05:39:24.893Z,3.00
2022-11-22T05:42:01.302Z,2.90
2022-11-22T05:44:34.377Z,3.00
2022-11-22T05:47:07.032Z,3.03
2022-11-22T05:49:39.888Z,3.10
2022-11-22T05:52:12.940Z,3.10
2022-11-22T05:54:45.844Z,2.93
2022-11-22T05:57:21.554Z,2.90
2022-11-22T05:59:55.362Z,2.60
2022-11-22T06:02:28.332Z,2.70
2022-11-22T06:05:01.416Z,2.50
2022-11-22T06:07:34.905Z,2.30
2022-11-22T06:10:07.888Z,2.30
2022-11-22T06:12:40.692Z,1.90
2022-11-22T06:15:14.739Z,1.67
2022-11-22T06:17:47.534Z,1.60
2022-11-22T06:20:20.786Z,1.60
2022-11-22T06:22:53.635Z,1.50
2022-11-22T06:25:26.597Z,1.50
2022-11-22T06:28:01.036Z,1.40
2022-11-22T06:30:34.005Z,1.40
2022-11-22T06:33:07.065Z,1.60
2022-11-22T06:35:40.006Z,1.50
2022-11-22T06:38:12.883Z,1.40
2022-11-22T06:40:45.907Z,1.40
2022-11-22T06:43:18.734Z,1.50
2022-11-22T06:45:51.481Z,1.40
2022-11-22T06:48:24.387Z,1.50
2022-11-22T06:50:58.201Z,1.50
2022-11-22T06:53:46.770Z,1.40
2022-11-22T06:56:11.624Z,1.40
2022-11-22T06:58:45.208Z,1.50
2022-11-22T07:01:20.387Z,1.50
2022-11-22T07:03:53.674Z,1.50
2022-11-22T07:06:26.851Z,1.50
2022-11-22T07:08:59.872Z,1.50
2022-11-22T07:11:34.275Z,1.60
2022-11-22T07:14:09.299Z,1.70
2022-11-22T07:16:42.772Z,1.53
2022-11-22T07:19:16.202Z,1.50
2022-11-22T07:21:49.091Z,1.60
2022-11-22T07:24:22.143Z,1.60
2022-11-22T07:26:55.087Z,1.60
2022-11-22T07:29:30.925Z,1.60
2022-11-22T07:32:07.220Z,1.50
2022-11-22T07:34:42.460Z,1.57
2022-11-22T07:37:15.250Z,1.40
2022-11-22T07:39:48.088Z,1.60
2022-11-22T07:42:25.831Z,1.60
2022-11-22T07:44:55.732Z,1.70
2022-11-22T07:47:28.525Z,1.50
2022-11-22T07:50:01.279Z,1.40
2022-11-22T07:52:34.201Z,1.40
2022-11-22T07:55:12.655Z,1.40
2022-11-22T07:57:42.581Z,1.50
2022-11-22T08:00:16.485Z,1.40
2022-11-22T08:02:49.534Z,1.40
2022-11-22T08:05:22.442Z,1.30
2022-11-22T08:07:56.409Z,1.20
2022-11-22T08:10:29.142Z,1.20
2022-11-22T08:13:07.774Z,1.20
2022-11-22T08:15:41.478Z,1.30
2022-11-22T08:18:14.471Z,1.30
2022-11-22T08:20:47.302Z,1.50
2022-11-22T08:23:20.104Z,1.40
2022-11-22T08:25:57.238Z,1.50
2022-11-22T08:28:30.350Z,1.70
2022-11-22T08:31:11.289Z,1.60
2022-11-22T08:33:44.636Z,1.60
2022-11-22T08:36:17.661Z,1.60
2022-11-22T08:38:50.814Z,1.60
2022-11-22T08:41:24.099Z,1.60
2022-11-22T08:43:57.451Z,1.60
2022-11-22T08:46:30.567Z,1.50
2022-11-22T08:49:04.764Z,1.60
2022-11-22T08:51:38.915Z,1.60
2022-11-22T08:54:11.780Z,1.60
2022-11-22T08:56:45.225Z,1.60
2022-11-22T08:59:18.489Z,1.50
2022-11-22T09:01:54.305Z,1.60
2022-11-22T09:04:27.408Z,1.60
2022-11-22T09:09:37.733Z,1.60
2022-11-22T09:12:11.984Z,1.60
2022-11-22T09:14:45.070Z,1.70
2022-11-22T09:17:18.422Z,1.50
2022-11-22T09:19:51.384Z,1.60
2022-11-22T09:22:28.390Z,1.70
2022-11-22T09:24:58.612Z,1.70
2022-11-22T09:27:31.864Z,1.70
2022-11-22T09:30:05.021Z,1.70
2022-11-22T09:32:38.253Z,1.80
2022-11-22T09:35:11.759Z,1.70
2022-11-22T09:37:44.650Z,1.70
2022-11-22T09:40:18.993Z,1.60
2022-11-22T09:43:08.775Z,1.60
2022-11-22T09:45:46.813Z,1.80
2022-11-22T09:48:54.920Z,1.80
2022-11-22T09:51:29.681Z,1.80
2022-11-22T09:54:10.436Z,1.80
2022-11-22T09:56:44.379Z,1.90
2022-11-22T09:59:18.980Z,1.70
2022-11-22T10:01:58.713Z,1.87
2022-11-22T10:04:45.446Z,1.80
2022-11-22T10:07:35.077Z,2.00
2022-11-22T10:10:10.251Z,2.00
2022-11-22T10:12:57.083Z,2.10
2022-11-22T10:15:38.039Z,2.00
2022-11-22T10:18:15.682Z,2.00
2022-11-22T10:20:49.279Z,1.90
2022-11-22T10:23:26.546Z,2.00
2022-11-22T10:26:04.582Z,2.00
2022-11-22T10:28:44.908Z,2.10
2022-11-22T10:31:22.434Z,1.90
2022-11-22T10:34:18.875Z,2.00
2022-11-22T10:36:57.155Z,2.20
2022-11-22T10:39:59.015Z,1.90
2022-11-22T10:42:37.032Z,1.73
2022-11-22T10:45:12.024Z,1.80
2022-11-22T10:48:01.813Z,1.80
2022-11-22T10:50:58.611Z,1.80
2022-11-22T10:54:08.588Z,1.80
2022-11-22T10:56:50.685Z,1.70
2022-11-22T10:59:31.399Z,1.90
2022-11-22T11:02:09.505Z,1.90
2022-11-22T11:04:44.370Z,1.90
2022-11-22T11:07:19.130Z,2.00
2022-11-22T11:10:20.302Z,2.00
2022-11-22T11:12:38.785Z,1.90
2022-11-22T11:15:25.905Z,1.90
2022-11-22T11:18:04.038Z,1.80
2022-11-22T11:20:44.874Z,2.10
2022-11-22T11:23:18.259Z,1.90
2022-11-22T11:25:53.104Z,2.10
2022-11-22T11:28:31.790Z,2.00
2022-11-22T11:31:12.226Z,1.90
2022-11-22T11:33:45.700Z,1.80
2022-11-22T11:36:26.294Z,1.80
2022-11-22T11:39:01.134Z,1.70
2022-11-22T11:41:40.331Z,1.90
2022-11-22T11:44:11.281Z,1.70
2022-11-22T11:46:49.347Z,1.70
2022-11-22T11:49:24.203Z,1.70
2022-11-22T11:52:11.846Z,1.80
2022-11-22T11:54:46.387Z,1.90
2022-11-22T11:57:29.928Z,2.00
2022-11-22T12:00:04.925Z,1.90
2022-11-22T12:02:45.150Z,2.10
2022-11-22T12:05:20.261Z,2.10
2022-11-22T12:07:55.711Z,2.10
2022-11-22T12:10:54.558Z,2.20
2022-11-22T12:13:33.427Z,2.10
2022-11-22T12:16:09.450Z,2.10
2022-11-22T12:19:01.926Z,2.10
2022-11-22T12:21:53.538Z,2.00
2022-11-22T12:25:02.772Z,2.10
2022-11-22T12:27:16.646Z,2.10
2022-11-22T12:29:50.039Z,2.00
2022-11-22T12:32:30.399Z,2.00
2022-11-22T12:35:10.926Z,2.00
2022-11-22T12:38:07.006Z,2.20
2022-11-22T12:40:44.415Z,2.20
2022-11-22T12:43:28.470Z,2.10
2022-11-22T12:46:03.499Z,2.20
2022-11-22T12:48:54.753Z,2.20
2022-11-22T12:51:48.858Z,2.10
2022-11-22T12:54:35.948Z,2.20
2022-11-22T12:57:10.753Z,2.20
2022-11-22T12:59:51.707Z,2.10
2022-11-22T13:02:36.213Z,2.00
2022-11-22T13:05:23.324Z,2.20
2022-11-22T13:08:13.956Z,2.10
2022-11-22T13:10:58.267Z,2.10
2022-11-22T13:13:42.496Z,2.30
2022-11-22T13:16:16.890Z,2.40
2022-11-22T13:18:57.564Z,2.30
2022-11-22T13:21:32.830Z,2.40
2022-11-22T13:24:22.862Z,2.30
2022-11-22T13:27:30.933Z,2.30
2022-11-22T13:30:06.004Z,2.50
2022-11-22T13:32:39.514Z,2.50
2022-11-22T13:35:17.598Z,2.50
2022-11-22T13:37:52.461Z,2.43
2022-11-22T13:40:30.462Z,2.40
2022-11-22T13:43:24.578Z,2.30
2022-11-22T13:46:07.551Z,2.30
2022-11-22T13:48:49.530Z,2.50
2022-11-22T13:51:24.653Z,2.30
2022-11-22T13:53:59.650Z,2.30
2022-11-22T13:56:34.888Z,2.17
2022-11-22T13:59:10.436Z,2.40
2022-11-22T14:01:45.560Z,2.20
2022-11-22T14:04:33.191Z,2.37
2022-11-22T14:07:16.984Z,2.40
2022-11-22T14:10:00.905Z,2.43
2022-11-22T14:12:54.289Z,2.40
2022-11-22T14:15:56.420Z,2.30
2022-11-22T14:19:04.471Z,2.40
2022-11-22T14:22:01.521Z,2.43
2022-11-22T14:24:39.530Z,2.40
2022-11-22T14:27:14.355Z,2.50
2022-11-22T14:29:58.899Z,2.50
2022-11-22T14:32:34.127Z,2.50
2022-11-22T14:35:12.553Z,2.70
2022-11-22T14:37:50.898Z,2.30
2022-11-22T14:40:35.437Z,2.40
2022-11-22T14:43:17.015Z,2.70
2022-11-22T14:46:04.502Z,2.50
2022-11-22T14:48:48.195Z,2.60
2022-11-22T14:51:32.650Z,2.40
2022-11-22T14:54:12.451Z,2.40
2022-11-22T14:56:46.840Z,2.40
2022-11-22T14:59:21.570Z,2.63
2022-11-22T15:02:05.978Z,2.40
2022-11-22T15:09:11.235Z,2.30
2022-11-22T15:09:12.287Z,2.80
2022-11-22T15:11:00.399Z,2.57
2022-11-22T15:14:01.671Z,2.60
2022-11-22T15:59:44.739Z,2.37
2022-11-22T16:02:22.630Z,2.40
2022-11-22T16:06:07.338Z,2.33
2022-11-22T16:07:39.797Z,2.10
2022-11-22T16:10:15.166Z,2.50
2022-11-22T16:12:48.253Z,2.20
2022-11-22T16:15:41.316Z,2.30
2022-11-22T16:18:19.183Z,2.10
2022-11-22T16:21:18.003Z,2.30
2022-11-22T16:23:51.062Z,2.50
2022-11-22T16:26:26.741Z,2.50
2022-11-22T16:29:01.067Z,2.40
2022-11-22T16:31:36.993Z,2.30
2022-11-22T16:34:12.310Z,2.30
2022-11-22T16:36:45.164Z,2.50
2022-11-22T16:39:18.311Z,2.57
2022-11-22T16:41:51.798Z,2.40
2022-11-22T16:44:25.060Z,2.50
2022-11-22T16:46:57.966Z,2.40
2022-11-22T16:49:31.315Z,2.30
2022-11-22T16:52:05.081Z,2.40
2022-11-22T16:54:38.009Z,2.40
2022-11-22T16:57:20.916Z,2.30
2022-11-22T16:59:53.743Z,2.40
2022-11-22T17:02:26.548Z,2.30
2022-11-22T17:04:59.394Z,2.30
2022-11-22T17:07:32.342Z,2.30
2022-11-22T17:10:05.348Z,2.30
2022-11-22T17:12:38.368Z,2.20
2022-11-22T17:15:14.373Z,2.20
2022-11-22T17:17:47.289Z,2.30
2022-11-22T17:20:20.320Z,2.30
2022-11-22T17:22:53.361Z,2.10
2022-11-22T17:25:26.740Z,2.10
2022-11-22T17:27:59.592Z,2.13
2022-11-22T17:30:32.554Z,2.10
2022-11-22T17:33:05.278Z,2.00
2022-11-22T17:35:38.268Z,2.10
2022-11-22T17:38:13.076Z,2.50
2022-11-22T17:40:47.096Z,2.30
2022-11-22T17:43:19.971Z,2.57
2022-11-22T17:45:53.059Z,2.10
2022-11-22T17:48:25.964Z,2.20
2022-11-22T17:50:58.876Z,2.10
2022-11-22T17:53:31.718Z,2.20
2022-11-22T17:56:12.177Z,2.20
2022-11-22T17:58:39.880Z,2.00
2022-11-22T18:01:17.975Z,2.20
2022-11-22T18:03:51.196Z,2.07
2022-11-22T18:06:24.594Z,1.90
2022-11-22T18:08:57.358Z,2.00
2022-11-22T18:11:30.243Z,1.80
2022-11-22T18:14:07.383Z,1.60
2022-11-22T18:16:40.441Z,1.80
2022-11-22T18:19:13.088Z,1.60
2022-11-22T18:21:45.957Z,1.50
2022-11-22T18:24:19.302Z,1.50
2022-11-22T18:26:52.125Z,1.40
2022-11-22T18:29:42.491Z,1.50
2022-11-22T18:31:59.109Z,1.50
2022-11-22T18:34:32.022Z,1.60
2022-11-22T18:37:05.230Z,1.50
2022-11-22T18:39:40.244Z,1.50
2022-11-22T18:42:17.937Z,1.60
2022-11-22T18:44:50.781Z,1.60
2022-11-22T18:47:23.750Z,1.60
2022-11-22T18:49:56.692Z,1.60
2022-11-22T18:52:29.713Z,1.80
2022-11-22T18:55:02.696Z,1.80
2022-11-22T18:57:35.710Z,1.80
2022-11-22T19:00:09.035Z,1.83
2022-11-22T19:02:42.075Z,1.80
2022-11-22T19:05:15.012Z,1.90
2022-11-22T19:07:47.972Z,2.20
2022-11-22T19:10:25.303Z,2.30
2022-11-22T19:12:58.215Z,2.50
2022-11-22T19:15:31.682Z,2.10
2022-11-22T19:18:04.719Z,2.30
2022-11-22T19:20:54.550Z,2.30
2022-11-22T19:23:12.264Z,2.27
2022-11-22T19:25:45.175Z,2.40
2022-11-22T19:28:18.063Z,2.30
2022-11-22T19:30:51.155Z,2.53
2022-11-22T19:33:24.651Z,2.50
2022-11-22T19:36:05.517Z,2.33
2022-11-22T19:38:38.496Z,2.50
2022-11-22T19:41:19.081Z,2.30
2022-11-22T19:43:52.937Z,2.40
2022-11-22T19:46:25.973Z,2.40
2022-11-22T19:49:00.462Z,2.80
2022-11-22T19:51:34.219Z,2.90
2022-11-22T19:54:07.248Z,2.80
2022-11-22T19:56:40.820Z,2.70
2022-11-22T19:59:15.607Z,2.90
2022-11-22T20:01:48.673Z,2.80
2022-11-22T20:04:21.658Z,2.70
2022-11-22T20:06:54.732Z,3.20
2022-11-22T20:09:28.460Z,3.40
2022-11-22T20:12:01.559Z,4.40
2022-11-22T20:14:34.483Z,3.40
2022-11-22T20:17:07.564Z,4.00
2022-11-22T20:19:40.353Z,4.30
2022-11-22T20:22:13.317Z,4.10
2022-11-22T20:24:46.209Z,4.40
2022-11-22T20:27:24.378Z,5.23
2022-11-22T20:29:53.583Z,4.10
2022-11-22T20:32:26.517Z,4.53
2022-11-22T20:34:59.840Z,5.00
2022-11-22T20:37:37.166Z,5.10
2022-11-22T20:40:11.039Z,5.07
2022-11-22T20:42:44.048Z,5.77
2022-11-22T20:45:18.374Z,7.10
2022-11-22T20:47:51.442Z,6.53
2022-11-22T20:50:24.388Z,7.20
2022-11-22T20:52:57.468Z,6.10
2022-11-22T20:55:35.129Z,6.30
2022-11-22T20:58:08.205Z,6.87
2022-11-22T21:00:41.622Z,5.80
2022-11-22T21:03:14.497Z,5.13
2022-11-22T21:05:52.098Z,5.30
2022-11-22T21:08:25.456Z,5.80
2022-11-22T21:10:59.531Z,6.03
2022-11-22T21:13:32.451Z,6.97
2022-11-22T21:16:21.510Z,6.90
2022-11-22T21:18:41.206Z,7.30
2022-11-22T21:21:22.113Z,7.40
2022-11-22T21:23:56.503Z,7.43
2022-11-22T21:26:29.893Z,7.90
2022-11-22T21:29:03.244Z,7.80
2022-11-22T21:31:36.202Z,8.80
2022-11-22T21:34:09.252Z,7.90
2022-11-22T21:36:42.593Z,8.20
2022-11-22T21:39:15.532Z,8.50
2022-11-22T21:41:48.547Z,9.20
2022-11-22T21:44:21.495Z,9.10
2022-11-22T21:46:54.352Z,8.50
2022-11-22T21:49:27.275Z,8.40
2022-11-22T21:52:00.971Z,8.43
2022-11-22T21:54:33.947Z,7.80
2022-11-22T21:57:06.915Z,9.50
2022-11-22T21:59:39.812Z,9.10
2022-11-22T22:02:13.319Z,9.73
2022-11-22T22:04:46.251Z,8.90
2022-11-22T22:07:44.656Z,8.30
2022-11-22T22:09:53.311Z,8.47
2022-11-22T22:12:26.120Z,9.57
2022-11-22T22:14:59.221Z,10.80
2022-11-22T22:17:32.107Z,10.50
2022-11-22T22:20:05.160Z,10.03
2022-11-22T22:22:39.165Z,8.57
2022-11-22T22:25:12.410Z,7.60
2022-11-22T22:27:46.538Z,8.20
2022-11-22T22:30:20.168Z,9.70
2022-11-22T22:32:53.020Z,11.07
2022-11-22T22:35:26.178Z,11.30
2022-11-22T22:37:59.306Z,11.60
2022-11-22T22:40:32.465Z,11.57
2022-11-22T22:43:05.373Z,11.60
2022-11-22T22:45:39.141Z,10.73
2022-11-22T22:48:12.198Z,10.90
2022-11-22T22:50:45.177Z,11.20
2022-11-22T22:53:18.180Z,9.90
2022-11-22T22:55:57.854Z,10.53
2022-11-22T22:58:30.699Z,10.80
2022-11-22T23:01:14.791Z,10.93
2022-11-22T23:03:54.966Z,11.50
2022-11-22T23:06:29.279Z,10.50
2022-11-22T23:09:02.941Z,9.30
2022-11-22T23:11:53.887Z,9.90
2022-11-22T23:14:31.142Z,9.03
2022-11-22T23:17:03.943Z,9.90
2022-11-22T23:19:36.866Z,9.30
2022-11-22T23:22:09.745Z,10.40
2022-11-22T23:24:42.629Z,9.80
2022-11-22T23:27:15.654Z,11.03
2022-11-22T23:29:48.609Z,9.50
2022-11-22T23:32:21.508Z,9.43
2022-11-22T23:34:54.442Z,9.10
2022-11-22T23:37:27.496Z,8.90
2022-11-22T23:40:00.455Z,8.10
2022-11-22T23:42:34.296Z,8.77
2022-11-22T23:45:07.306Z,9.90
2022-11-22T23:47:40.129Z,9.50
2022-11-22T23:50:13.758Z,8.60
2022-11-22T23:52:50.989Z,8.20
2022-11-22T23:55:23.935Z,7.90
2022-11-22T23:57:56.949Z,7.60
